Terminal Aerodrome Forecast
Issued by NWS

Home | Current Version | Previous Version | Text Only | Print | Product List | Glossary On
Versions: 1 2 3 4 5 6 7 8 9 10 11 12 13 14 15 16 17 18 19 20
010
FTUS41 KCAR 222333
TAFFVE
TAF
KFVE 222333Z 2300/2324 01005KT P6SM BKN025
     FM230300 02005KT P6SM SCT025 BKN040
     FM230500 02004KT P6SM BKN020
     FM230800 VRB03KT 3SM BR SCT020
     FM231400 VRB03KT P6SM SCT100=

USA.gov is the U.S. government's official web portal to all federal, state and local government web resources and services.